sensor_id;sensor_type;location;lat;lon;timestamp;temperature;humidity
10905;DHT22;5505;51.450;9.254;2022-11-20T00:00:37;-6.00;99.90
10905;DHT22;5505;51.450;9.254;2022-11-20T00:03:26;-6.00;99.90
10905;DHT22;5505;51.450;9.254;2022-11-20T00:06:14;-6.00;99.90
10905;DHT22;5505;51.450;9.254;2022-11-20T00:09:01;-6.00;99.90
10905;DHT22;5505;51.450;9.254;2022-11-20T00:11:47;-6.00;99.90
10905;DHT22;5505;51.450;9.254;2022-11-20T00:14:34;-6.00;99.90
10905;DHT22;5505;51.450;9.254;2022-11-20T00:17:21;-6.00;99.90
10905;DHT22;5505;51.450;9.254;2022-11-20T00:20:15;-6.00;99.90
10905;DHT22;5505;51.450;9.254;2022-11-20T00:23:05;-6.10;99.90
10905;DHT22;5505;51.450;9.254;2022-11-20T00:25:52;-6.10;99.90
10905;DHT22;5505;51.450;9.254;2022-11-20T00:28:39;-6.00;99.90
10905;DHT22;5505;51.450;9.254;2022-11-20T00:31:27;-3.70;99.90
10905;DHT22;5505;51.450;9.254;2022-11-20T00:34:14;-6.40;99.90
10905;DHT22;5505;51.450;9.254;2022-11-20T00:37:02;-6.40;99.90
10905;DHT22;5505;51.450;9.254;2022-11-20T00:39:50;-6.40;99.90
10905;DHT22;5505;51.450;9.254;2022-11-20T00:42:37;-6.40;99.90
10905;DHT22;5505;51.450;9.254;2022-11-20T00:45:23;-6.40;99.90
10905;DHT22;5505;51.450;9.254;2022-11-20T00:48:10;-6.30;99.90
10905;DHT22;5505;51.450;9.254;2022-11-20T00:50:57;-6.30;99.90
10905;DHT22;5505;51.450;9.254;2022-11-20T00:53:46;-6.30;99.90
10905;DHT22;5505;51.450;9.254;2022-11-20T00:56:33;-6.30;99.90
10905;DHT22;5505;51.450;9.254;2022-11-20T00:59:20;-6.30;99.90
10905;DHT22;5505;51.450;9.254;2022-11-20T01:02:06;-6.30;99.90
10905;DHT22;5505;51.450;9.254;2022-11-20T01:04:54;-6.40;99.90
10905;DHT22;5505;51.450;9.254;2022-11-20T01:07:40;-6.40;99.90
10905;DHT22;5505;51.450;9.254;2022-11-20T01:10:29;-6.40;99.90
10905;DHT22;5505;51.450;9.254;2022-11-20T01:13:15;-6.40;99.90
10905;DHT22;5505;51.450;9.254;2022-11-20T01:16:21;-6.30;99.90
10905;DHT22;5505;51.450;9.254;2022-11-20T01:19:11;-6.30;99.90
10905;DHT22;5505;51.450;9.254;2022-11-20T01:21:58;-6.40;99.90
10905;DHT22;5505;51.450;9.254;2022-11-20T01:24:45;-6.50;99.90
10905;DHT22;5505;51.450;9.254;2022-11-20T01:27:33;-6.50;99.90
10905;DHT22;5505;51.450;9.254;2022-11-20T01:30:19;-6.50;99.90
10905;DHT22;5505;51.450;9.254;2022-11-20T01:33:06;-6.50;99.90
10905;DHT22;5505;51.450;9.254;2022-11-20T01:35:53;-4.80;99.90
10905;DHT22;5505;51.450;9.254;2022-11-20T01:38:51;-6.50;99.90
10905;DHT22;5505;51.450;9.254;2022-11-20T01:41:38;-6.50;99.90
10905;DHT22;5505;51.450;9.254;2022-11-20T01:44:51;-6.50;99.90
10905;DHT22;5505;51.450;9.254;2022-11-20T01:47:40;-6.50;99.90
10905;DHT22;5505;51.450;9.254;2022-11-20T01:50:29;-6.50;99.90
10905;DHT22;5505;51.450;9.254;2022-11-20T01:53:18;-6.50;99.90
10905;DHT22;5505;51.450;9.254;2022-11-20T01:56:10;-6.50;99.90
10905;DHT22;5505;51.450;9.254;2022-11-20T01:59:00;-6.50;99.90
10905;DHT22;5505;51.450;9.254;2022-11-20T02:01:49;-6.60;99.90
10905;DHT22;5505;51.450;9.254;2022-11-20T02:04:36;-6.60;99.90
10905;DHT22;5505;51.450;9.254;2022-11-20T02:07:23;-6.60;99.90
10905;DHT22;5505;51.450;9.254;2022-11-20T02:10:11;-6.70;99.90
10905;DHT22;5505;51.450;9.254;2022-11-20T02:12:58;-6.70;99.90
10905;DHT22;5505;51.450;9.254;2022-11-20T02:16:03;-6.80;99.90
10905;DHT22;5505;51.450;9.254;2022-11-20T02:18:53;-6.80;99.90
10905;DHT22;5505;51.450;9.254;2022-11-20T02:21:44;-6.80;99.90
10905;DHT22;5505;51.450;9.254;2022-11-20T02:24:35;-6.80;99.90
10905;DHT22;5505;51.450;9.254;2022-11-20T02:27:22;-6.80;99.90
10905;DHT22;5505;51.450;9.254;2022-11-20T02:30:10;-6.80;99.90
10905;DHT22;5505;51.450;9.254;2022-11-20T02:32:58;-6.80;99.90
10905;DHT22;5505;51.450;9.254;2022-11-20T02:35:45;-6.90;99.90
10905;DHT22;5505;51.450;9.254;2022-11-20T02:38:32;-6.90;99.90
10905;DHT22;5505;51.450;9.254;2022-11-20T02:41:20;-6.90;99.90
10905;DHT22;5505;51.450;9.254;2022-11-20T02:44:07;-6.80;99.90
10905;DHT22;5505;51.450;9.254;2022-11-20T02:46:57;-6.80;99.90
10905;DHT22;5505;51.450;9.254;2022-11-20T02:49:44;-6.80;99.90
10905;DHT22;5505;51.450;9.254;2022-11-20T02:52:31;-6.80;99.90
10905;DHT22;5505;51.450;9.254;2022-11-20T02:55:17;-6.90;99.90
10905;DHT22;5505;51.450;9.254;2022-11-20T02:58:06;-7.00;99.90
10905;DHT22;5505;51.450;9.254;2022-11-20T03:00:52;-7.00;99.90
10905;DHT22;5505;51.450;9.254;2022-11-20T03:03:39;-7.10;99.90
10905;DHT22;5505;51.450;9.254;2022-11-20T03:06:26;-7.10;99.90
10905;DHT22;5505;51.450;9.254;2022-11-20T03:09:13;-7.20;99.90
10905;DHT22;5505;51.450;9.254;2022-11-20T03:12:00;-7.20;99.90
10905;DHT22;5505;51.450;9.254;2022-11-20T03:14:48;-7.20;99.90
10905;DHT22;5505;51.450;9.254;2022-11-20T03:17:36;-5.50;99.90
10905;DHT22;5505;51.450;9.254;2022-11-20T03:20:24;-7.10;99.90
10905;DHT22;5505;51.450;9.254;2022-11-20T03:23:11;-7.20;99.90
10905;DHT22;5505;51.450;9.254;2022-11-20T03:26:08;-7.20;99.90
10905;DHT22;5505;51.450;9.254;2022-11-20T03:28:56;-7.30;99.90
10905;DHT22;5505;51.450;9.254;2022-11-20T03:31:45;-7.20;99.90
10905;DHT22;5505;51.450;9.254;2022-11-20T03:34:32;-7.20;99.90
10905;DHT22;5505;51.450;9.254;2022-11-20T03:37:19;-7.10;99.90
10905;DHT22;5505;51.450;9.254;2022-11-20T03:40:06;-7.10;99.90
10905;DHT22;5505;51.450;9.254;2022-11-20T03:42:53;-7.10;99.90
10905;DHT22;5505;51.450;9.254;2022-11-20T03:45:40;-7.10;99.90
10905;DHT22;5505;51.450;9.254;2022-11-20T03:48:28;-7.00;99.90
10905;DHT22;5505;51.450;9.254;2022-11-20T03:51:17;-4.40;99.90
10905;DHT22;5505;51.450;9.254;2022-11-20T03:54:06;-7.20;99.90
10905;DHT22;5505;51.450;9.254;2022-11-20T03:56:53;-7.20;99.90
10905;DHT22;5505;51.450;9.254;2022-11-20T03:59:39;-7.20;99.90
10905;DHT22;5505;51.450;9.254;2022-11-20T04:02:26;-7.20;99.90
10905;DHT22;5505;51.450;9.254;2022-11-20T04:05:14;-7.20;99.90
10905;DHT22;5505;51.450;9.254;2022-11-20T04:08:01;-7.20;99.90
10905;DHT22;5505;51.450;9.254;2022-11-20T04:10:49;-7.10;99.90
10905;DHT22;5505;51.450;9.254;2022-11-20T04:13:37;-7.10;99.90
10905;DHT22;5505;51.450;9.254;2022-11-20T04:16:25;-7.10;99.90
10905;DHT22;5505;51.450;9.254;2022-11-20T04:19:13;-7.10;99.90
10905;DHT22;5505;51.450;9.254;2022-11-20T04:22:02;-7.20;99.90
10905;DHT22;5505;51.450;9.254;2022-11-20T04:24:49;-7.20;99.90
10905;DHT22;5505;51.450;9.254;2022-11-20T04:27:35;-7.30;99.90
10905;DHT22;5505;51.450;9.254;2022-11-20T04:30:22;-7.30;99.90
10905;DHT22;5505;51.450;9.254;2022-11-20T04:33:09;-7.40;99.90
10905;DHT22;5505;51.450;9.254;2022-11-20T04:36:00;-7.50;99.90
10905;DHT22;5505;51.450;9.254;2022-11-20T04:38:51;-7.60;99.90
10905;DHT22;5505;51.450;9.254;2022-11-20T04:41:38;-7.60;99.90
10905;DHT22;5505;51.450;9.254;2022-11-20T04:44:25;-7.60;99.90
10905;DHT22;5505;51.450;9.254;2022-11-20T04:47:12;-7.30;99.90
10905;DHT22;5505;51.450;9.254;2022-11-20T04:49:59;-7.50;99.90
10905;DHT22;5505;51.450;9.254;2022-11-20T04:52:46;-7.50;99.90
10905;DHT22;5505;51.450;9.254;2022-11-20T04:55:34;-7.30;99.90
10905;DHT22;5505;51.450;9.254;2022-11-20T04:58:22;-7.40;99.90
10905;DHT22;5505;51.450;9.254;2022-11-20T05:01:10;-7.50;99.90
10905;DHT22;5505;51.450;9.254;2022-11-20T05:03:58;-7.50;99.90
10905;DHT22;5505;51.450;9.254;2022-11-20T05:06:45;-7.50;99.90
10905;DHT22;5505;51.450;9.254;2022-11-20T05:09:31;-7.40;99.90
10905;DHT22;5505;51.450;9.254;2022-11-20T05:12:19;-7.50;99.90
10905;DHT22;5505;51.450;9.254;2022-11-20T05:15:07;-7.50;99.90
10905;DHT22;5505;51.450;9.254;2022-11-20T05:17:54;-7.50;99.90
10905;DHT22;5505;51.450;9.254;2022-11-20T05:20:40;-5.90;99.90
10905;DHT22;5505;51.450;9.254;2022-11-20T05:23:30;-7.50;99.90
10905;DHT22;5505;51.450;9.254;2022-11-20T05:26:20;-7.50;99.90
10905;DHT22;5505;51.450;9.254;2022-11-20T05:29:10;-7.60;99.90
10905;DHT22;5505;51.450;9.254;2022-11-20T05:31:59;-7.80;99.90
10905;DHT22;5505;51.450;9.254;2022-11-20T05:34:46;-7.80;99.90
10905;DHT22;5505;51.450;9.254;2022-11-20T05:37:33;-7.90;99.90
10905;DHT22;5505;51.450;9.254;2022-11-20T05:40:19;-8.00;99.90
10905;DHT22;5505;51.450;9.254;2022-11-20T05:43:06;-8.00;99.90
10905;DHT22;5505;51.450;9.254;2022-11-20T05:45:54;-8.00;99.90
10905;DHT22;5505;51.450;9.254;2022-11-20T05:48:43;-7.90;99.90
10905;DHT22;5505;51.450;9.254;2022-11-20T05:51:30;-7.90;99.90
10905;DHT22;5505;51.450;9.254;2022-11-20T05:54:16;-7.90;99.90
10905;DHT22;5505;51.450;9.254;2022-11-20T05:57:03;-7.90;99.90
10905;DHT22;5505;51.450;9.254;2022-11-20T05:59:50;-8.00;99.90
10905;DHT22;5505;51.450;9.254;2022-11-20T06:02:39;-7.90;99.90
10905;DHT22;5505;51.450;9.254;2022-11-20T06:05:25;-8.00;99.90
10905;DHT22;5505;51.450;9.254;2022-11-20T06:08:12;-8.00;99.90
10905;DHT22;5505;51.450;9.254;2022-11-20T06:11:03;-8.00;99.90
10905;DHT22;5505;51.450;9.254;2022-11-20T06:13:50;-8.00;99.90
10905;DHT22;5505;51.450;9.254;2022-11-20T06:16:37;-8.00;99.90
10905;DHT22;5505;51.450;9.254;2022-11-20T06:19:25;-7.80;99.90
10905;DHT22;5505;51.450;9.254;2022-11-20T06:22:12;-7.90;99.90
10905;DHT22;5505;51.450;9.254;2022-11-20T06:24:59;-7.80;99.90
10905;DHT22;5505;51.450;9.254;2022-11-20T06:27:45;-7.90;99.90
10905;DHT22;5505;51.450;9.254;2022-11-20T06:30:33;-7.90;99.90
10905;DHT22;5505;51.450;9.254;2022-11-20T06:33:19;-5.60;99.90
10905;DHT22;5505;51.450;9.254;2022-11-20T06:36:10;-8.00;99.90
10905;DHT22;5505;51.450;9.254;2022-11-20T06:38:58;-8.10;99.90
10905;DHT22;5505;51.450;9.254;2022-11-20T06:41:46;-8.10;99.90
10905;DHT22;5505;51.450;9.254;2022-11-20T06:44:33;-7.80;99.90
10905;DHT22;5505;51.450;9.254;2022-11-20T06:47:20;-8.10;99.90
10905;DHT22;5505;51.450;9.254;2022-11-20T06:50:09;-8.10;99.90
10905;DHT22;5505;51.450;9.254;2022-11-20T06:53:00;-8.10;99.90
10905;DHT22;5505;51.450;9.254;2022-11-20T06:55:48;-8.10;99.90
10905;DHT22;5505;51.450;9.254;2022-11-20T06:58:36;-7.30;99.90
10905;DHT22;5505;51.450;9.254;2022-11-20T07:01:23;-8.00;99.90
10905;DHT22;5505;51.450;9.254;2022-11-20T07:04:09;-8.00;99.90
10905;DHT22;5505;51.450;9.254;2022-11-20T07:06:56;-7.90;99.90
10905;DHT22;5505;51.450;9.254;2022-11-20T07:09:44;-8.00;99.90
10905;DHT22;5505;51.450;9.254;2022-11-20T07:12:31;-8.00;99.90
10905;DHT22;5505;51.450;9.254;2022-11-20T07:15:19;-8.10;99.90
10905;DHT22;5505;51.450;9.254;2022-11-20T07:18:06;-6.70;99.90
10905;DHT22;5505;51.450;9.254;2022-11-20T07:20:52;-8.10;99.90
10905;DHT22;5505;51.450;9.254;2022-11-20T07:23:39;-8.10;99.90
10905;DHT22;5505;51.450;9.254;2022-11-20T07:26:28;-8.10;99.90
10905;DHT22;5505;51.450;9.254;2022-11-20T07:29:15;-8.00;99.90
10905;DHT22;5505;51.450;9.254;2022-11-20T07:32:02;-10.30;99.90
10905;DHT22;5505;51.450;9.254;2022-11-20T07:34:48;-6.40;99.90
10905;DHT22;5505;51.450;9.254;2022-11-20T07:37:35;-8.00;99.90
10905;DHT22;5505;51.450;9.254;2022-11-20T07:40:22;-7.80;99.90
10905;DHT22;5505;51.450;9.254;2022-11-20T07:43:10;-7.80;99.90
10905;DHT22;5505;51.450;9.254;2022-11-20T07:45:57;-7.70;99.90
10905;DHT22;5505;51.450;9.254;2022-11-20T07:48:44;-7.70;99.90
10905;DHT22;5505;51.450;9.254;2022-11-20T07:51:31;-7.50;99.90
10905;DHT22;5505;51.450;9.254;2022-11-20T07:54:18;-7.40;99.90
10905;DHT22;5505;51.450;9.254;2022-11-20T07:57:05;-7.30;99.90
10905;DHT22;5505;51.450;9.254;2022-11-20T07:59:53;-7.10;99.90
10905;DHT22;5505;51.450;9.254;2022-11-20T08:02:40;-7.00;99.90
10905;DHT22;5505;51.450;9.254;2022-11-20T08:05:27;-6.90;99.90
10905;DHT22;5505;51.450;9.254;2022-11-20T08:08:14;-6.80;99.90
10905;DHT22;5505;51.450;9.254;2022-11-20T08:11:01;-6.70;99.90
10905;DHT22;5505;51.450;9.254;2022-11-20T08:14:01;-6.60;99.90
10905;DHT22;5505;51.450;9.254;2022-11-20T08:17:02;-6.50;99.90
10905;DHT22;5505;51.450;9.254;2022-11-20T08:19:49;-6.40;99.90
10905;DHT22;5505;51.450;9.254;2022-11-20T08:22:36;-6.30;99.90
10905;DHT22;5505;51.450;9.254;2022-11-20T08:25:22;-6.20;99.90
10905;DHT22;5505;51.450;9.254;2022-11-20T08:28:09;-6.10;99.90
10905;DHT22;5505;51.450;9.254;2022-11-20T08:30:59;-6.00;99.90
10905;DHT22;5505;51.450;9.254;2022-11-20T08:33:48;-5.90;99.90
10905;DHT22;5505;51.450;9.254;2022-11-20T08:36:35;-5.90;99.90
10905;DHT22;5505;51.450;9.254;2022-11-20T08:39:22;-5.90;99.90
10905;DHT22;5505;51.450;9.254;2022-11-20T08:42:09;-5.90;99.90
10905;DHT22;5505;51.450;9.254;2022-11-20T08:44:56;-5.90;99.90
10905;DHT22;5505;51.450;9.254;2022-11-20T08:47:43;-5.90;99.90
10905;DHT22;5505;51.450;9.254;2022-11-20T08:50:32;-5.90;99.90
10905;DHT22;5505;51.450;9.254;2022-11-20T08:53:18;-5.80;99.90
10905;DHT22;5505;51.450;9.254;2022-11-20T08:56:06;-5.70;99.90
10905;DHT22;5505;51.450;9.254;2022-11-20T08:58:53;-5.60;99.90
10905;DHT22;5505;51.450;9.254;2022-11-20T09:01:39;-5.50;99.90
10905;DHT22;5505;51.450;9.254;2022-11-20T09:04:26;-5.40;99.90
10905;DHT22;5505;51.450;9.254;2022-11-20T09:07:17;-5.30;99.90
10905;DHT22;5505;51.450;9.254;2022-11-20T09:10:05;-5.20;99.90
10905;DHT22;5505;51.450;9.254;2022-11-20T09:12:54;-5.10;99.90
10905;DHT22;5505;51.450;9.254;2022-11-20T09:15:41;-5.00;99.90
10905;DHT22;5505;51.450;9.254;2022-11-20T09:18:28;-4.80;99.90
10905;DHT22;5505;51.450;9.254;2022-11-20T09:21:17;-4.70;99.90
10905;DHT22;5505;51.450;9.254;2022-11-20T09:24:06;-4.60;99.90
10905;DHT22;5505;51.450;9.254;2022-11-20T09:26:53;-4.40;99.90
10905;DHT22;5505;51.450;9.254;2022-11-20T09:29:40;-4.30;99.90
10905;DHT22;5505;51.450;9.254;2022-11-20T09:32:27;-4.30;99.90
10905;DHT22;5505;51.450;9.254;2022-11-20T09:35:14;-4.20;99.90
10905;DHT22;5505;51.450;9.254;2022-11-20T09:38:05;-4.10;99.90
10905;DHT22;5505;51.450;9.254;2022-11-20T09:40:57;-3.10;99.90
10905;DHT22;5505;51.450;9.254;2022-11-20T09:43:52;-4.00;99.90
10905;DHT22;5505;51.450;9.254;2022-11-20T09:46:47;-3.90;99.90
10905;DHT22;5505;51.450;9.254;2022-11-20T09:49:42;-3.90;99.90
10905;DHT22;5505;51.450;9.254;2022-11-20T09:52:41;-2.40;99.90
10905;DHT22;5505;51.450;9.254;2022-11-20T09:55:35;-3.70;99.90
10905;DHT22;5505;51.450;9.254;2022-11-20T09:58:30;-3.70;99.90
10905;DHT22;5505;51.450;9.254;2022-11-20T10:01:19;-3.60;99.90
10905;DHT22;5505;51.450;9.254;2022-11-20T10:04:11;-3.60;99.90
10905;DHT22;5505;51.450;9.254;2022-11-20T10:07:04;-3.50;99.90
10905;DHT22;5505;51.450;9.254;2022-11-20T10:09:55;-3.40;99.90
10905;DHT22;5505;51.450;9.254;2022-11-20T10:12:55;-3.40;99.90
10905;DHT22;5505;51.450;9.254;2022-11-20T10:15:54;-3.30;99.90
10905;DHT22;5505;51.450;9.254;2022-11-20T10:18:54;-3.20;99.90
10905;DHT22;5505;51.450;9.254;2022-11-20T10:21:55;-3.00;99.90
10905;DHT22;5505;51.450;9.254;2022-11-20T10:24:51;-3.00;99.90
10905;DHT22;5505;51.450;9.254;2022-11-20T10:28:06;-2.90;99.90
10905;DHT22;5505;51.450;9.254;2022-11-20T10:31:00;-2.90;99.90
10905;DHT22;5505;51.450;9.254;2022-11-20T10:33:49;-2.80;99.90
10905;DHT22;5505;51.450;9.254;2022-11-20T10:36:43;-2.70;99.90
10905;DHT22;5505;51.450;9.254;2022-11-20T10:39:35;-2.70;99.90
10905;DHT22;5505;51.450;9.254;2022-11-20T10:42:28;-2.70;99.90
10905;DHT22;5505;51.450;9.254;2022-11-20T10:45:27;-2.50;99.90
10905;DHT22;5505;51.450;9.254;2022-11-20T10:48:22;-2.30;99.90
10905;DHT22;5505;51.450;9.254;2022-11-20T10:51:18;-2.30;99.90
10905;DHT22;5505;51.450;9.254;2022-11-20T10:54:12;-2.20;99.90
10905;DHT22;5505;51.450;9.254;2022-11-20T10:57:10;-2.10;99.90
10905;DHT22;5505;51.450;9.254;2022-11-20T11:00:04;-2.00;99.90
10905;DHT22;5505;51.450;9.254;2022-11-20T11:02:52;-1.40;99.90
10905;DHT22;5505;51.450;9.254;2022-11-20T11:05:44;-1.90;99.90
10905;DHT22;5505;51.450;9.254;2022-11-20T11:08:38;-1.90;99.90
10905;DHT22;5505;51.450;9.254;2022-11-20T11:11:28;-1.10;99.90
10905;DHT22;5505;51.450;9.254;2022-11-20T11:14:15;-1.70;99.90
10905;DHT22;5505;51.450;9.254;2022-11-20T11:17:02;-0.30;99.90
10905;DHT22;5505;51.450;9.254;2022-11-20T11:20:15;-1.70;99.90
10905;DHT22;5505;51.450;9.254;2022-11-20T11:23:05;-1.80;99.90
10905;DHT22;5505;51.450;9.254;2022-11-20T11:25:56;-1.90;99.90
10905;DHT22;5505;51.450;9.254;2022-11-20T11:28:53;-1.90;99.90
10905;DHT22;5505;51.450;9.254;2022-11-20T11:31:40;-1.10;99.90
10905;DHT22;5505;51.450;9.254;2022-11-20T11:34:27;-1.80;99.90
10905;DHT22;5505;51.450;9.254;2022-11-20T11:37:18;-1.70;99.90
10905;DHT22;5505;51.450;9.254;2022-11-20T11:40:11;-1.60;99.90
10905;DHT22;5505;51.450;9.254;2022-11-20T11:43:01;-1.50;99.90
10905;DHT22;5505;51.450;9.254;2022-11-20T11:45:52;-1.50;99.90
10905;DHT22;5505;51.450;9.254;2022-11-20T11:48:39;-1.50;99.90
10905;DHT22;5505;51.450;9.254;2022-11-20T11:51:31;-1.40;99.90
10905;DHT22;5505;51.450;9.254;2022-11-20T11:54:22;-1.40;99.90
10905;DHT22;5505;51.450;9.254;2022-11-20T11:57:15;0.50;99.90
10905;DHT22;5505;51.450;9.254;2022-11-20T12:00:09;-1.50;99.90
10905;DHT22;5505;51.450;9.254;2022-11-20T12:03:04;-1.40;99.90
10905;DHT22;5505;51.450;9.254;2022-11-20T12:05:57;-1.30;99.90
10905;DHT22;5505;51.450;9.254;2022-11-20T12:08:50;-1.40;99.90
10905;DHT22;5505;51.450;9.254;2022-11-20T12:11:43;-1.30;99.90
10905;DHT22;5505;51.450;9.254;2022-11-20T12:14:35;-1.20;99.90
10905;DHT22;5505;51.450;9.254;2022-11-20T12:17:22;-1.10;99.90
10905;DHT22;5505;51.450;9.254;2022-11-20T12:20:13;-1.00;99.90
10905;DHT22;5505;51.450;9.254;2022-11-20T12:23:04;-0.90;99.90
10905;DHT22;5505;51.450;9.254;2022-11-20T12:25:57;-0.90;99.90
10905;DHT22;5505;51.450;9.254;2022-11-20T12:28:53;-0.60;99.90
10905;DHT22;5505;51.450;9.254;2022-11-20T12:31:56;-0.90;99.90
10905;DHT22;5505;51.450;9.254;2022-11-20T12:34:59;-1.00;99.90
10905;DHT22;5505;51.450;9.254;2022-11-20T12:37:52;-0.90;99.90
10905;DHT22;5505;51.450;9.254;2022-11-20T12:40:46;-0.90;99.90
10905;DHT22;5505;51.450;9.254;2022-11-20T12:43:43;-0.90;99.90
10905;DHT22;5505;51.450;9.254;2022-11-20T12:47:12;-1.00;99.90
10905;DHT22;5505;51.450;9.254;2022-11-20T12:50:08;0.40;99.90
10905;DHT22;5505;51.450;9.254;2022-11-20T12:53:04;-1.10;99.90
10905;DHT22;5505;51.450;9.254;2022-11-20T12:55:57;-1.10;99.90
10905;DHT22;5505;51.450;9.254;2022-11-20T12:59:01;-0.70;99.90
10905;DHT22;5505;51.450;9.254;2022-11-20T13:01:55;-1.30;99.90
10905;DHT22;5505;51.450;9.254;2022-11-20T13:04:57;-1.30;99.90
10905;DHT22;5505;51.450;9.254;2022-11-20T13:07:47;-1.50;99.90
10905;DHT22;5505;51.450;9.254;2022-11-20T13:10:37;-1.20;99.90
10905;DHT22;5505;51.450;9.254;2022-11-20T13:13:31;-1.30;99.90
10905;DHT22;5505;51.450;9.254;2022-11-20T13:16:26;-1.30;99.90
10905;DHT22;5505;51.450;9.254;2022-11-20T13:19:19;-0.60;99.90
10905;DHT22;5505;51.450;9.254;2022-11-20T13:22:08;-1.30;99.90
10905;DHT22;5505;51.450;9.254;2022-11-20T13:24:55;-1.30;99.90
10905;DHT22;5505;51.450;9.254;2022-11-20T13:27:47;-1.30;99.90
10905;DHT22;5505;51.450;9.254;2022-11-20T13:30:35;-1.30;99.90
10905;DHT22;5505;51.450;9.254;2022-11-20T13:33:25;-1.20;99.90
10905;DHT22;5505;51.450;9.254;2022-11-20T13:36:23;-1.20;99.90
10905;DHT22;5505;51.450;9.254;2022-11-20T13:39:11;-1.20;99.90
10905;DHT22;5505;51.450;9.254;2022-11-20T13:41:59;-1.20;99.90
10905;DHT22;5505;51.450;9.254;2022-11-20T13:44:50;-1.20;99.90
10905;DHT22;5505;51.450;9.254;2022-11-20T13:47:37;-1.30;99.90
10905;DHT22;5505;51.450;9.254;2022-11-20T13:50:46;-1.40;99.90
10905;DHT22;5505;51.450;9.254;2022-11-20T13:53:53;-1.40;99.90
10905;DHT22;5505;51.450;9.254;2022-11-20T13:56:53;-0.20;99.90
10905;DHT22;5505;51.450;9.254;2022-11-20T13:59:51;-1.40;99.90
10905;DHT22;5505;51.450;9.254;2022-11-20T14:02:40;-1.40;99.90
10905;DHT22;5505;51.450;9.254;2022-11-20T14:05:28;-1.40;99.90
10905;DHT22;5505;51.450;9.254;2022-11-20T14:08:26;-1.30;99.90
10905;DHT22;5505;51.450;9.254;2022-11-20T14:11:18;-1.40;99.90
10905;DHT22;5505;51.450;9.254;2022-11-20T14:14:13;-1.20;99.90
10905;DHT22;5505;51.450;9.254;2022-11-20T14:17:06;-1.20;99.90
10905;DHT22;5505;51.450;9.254;2022-11-20T14:19:53;-1.30;99.90
10905;DHT22;5505;51.450;9.254;2022-11-20T14:22:48;-1.30;99.90
10905;DHT22;5505;51.450;9.254;2022-11-20T14:25:36;-1.30;99.90
10905;DHT22;5505;51.450;9.254;2022-11-20T14:28:28;-1.30;99.90
10905;DHT22;5505;51.450;9.254;2022-11-20T14:31:21;-1.30;99.90
10905;DHT22;5505;51.450;9.254;2022-11-20T14:34:14;-1.40;99.90
10905;DHT22;5505;51.450;9.254;2022-11-20T14:37:04;-1.40;99.90
10905;DHT22;5505;51.450;9.254;2022-11-20T14:39:53;-1.50;99.90
10905;DHT22;5505;51.450;9.254;2022-11-20T14:42:43;-1.50;99.90
10905;DHT22;5505;51.450;9.254;2022-11-20T14:45:32;-1.60;99.90
10905;DHT22;5505;51.450;9.254;2022-11-20T14:48:19;-1.50;99.90
10905;DHT22;5505;51.450;9.254;2022-11-20T14:51:09;-1.50;99.90
10905;DHT22;5505;51.450;9.254;2022-11-20T14:53:56;-1.60;99.90
10905;DHT22;5505;51.450;9.254;2022-11-20T14:56:53;-1.60;99.90
10905;DHT22;5505;51.450;9.254;2022-11-20T14:59:40;-1.60;99.90
10905;DHT22;5505;51.450;9.254;2022-11-20T15:02:30;-1.60;99.90
10905;DHT22;5505;51.450;9.254;2022-11-20T15:05:18;-1.60;99.90
10905;DHT22;5505;51.450;9.254;2022-11-20T15:08:08;-1.70;99.90
10905;DHT22;5505;51.450;9.254;2022-11-20T15:10:56;-1.70;99.90
10905;DHT22;5505;51.450;9.254;2022-11-20T15:13:43;-1.70;99.90
10905;DHT22;5505;51.450;9.254;2022-11-20T15:16:31;-1.60;99.90
10905;DHT22;5505;51.450;9.254;2022-11-20T15:19:22;-1.70;99.90
10905;DHT22;5505;51.450;9.254;2022-11-20T15:22:12;-1.70;99.90
10905;DHT22;5505;51.450;9.254;2022-11-20T15:24:59;-1.70;99.90
10905;DHT22;5505;51.450;9.254;2022-11-20T15:27:49;-1.80;99.90
10905;DHT22;5505;51.450;9.254;2022-11-20T15:34:15;-2.70;99.90
10905;DHT22;5505;51.450;9.254;2022-11-20T15:37:03;-1.70;99.90
10905;DHT22;5505;51.450;9.254;2022-11-20T15:39:50;-1.70;99.90
10905;DHT22;5505;51.450;9.254;2022-11-20T15:46:15;-1.70;99.90
10905;DHT22;5505;51.450;9.254;2022-11-20T15:49:30;-1.50;99.90
10905;DHT22;5505;51.450;9.254;2022-11-20T15:52:39;-1.30;99.90
10905;DHT22;5505;51.450;9.254;2022-11-20T15:55:38;-4.50;99.90
10905;DHT22;5505;51.450;9.254;2022-11-20T15:58:44;0.10;99.90
10905;DHT22;5505;51.450;9.254;2022-11-20T16:01:52;-0.10;99.90
10905;DHT22;5505;51.450;9.254;2022-11-20T16:04:53;-1.80;99.90
10905;DHT22;5505;51.450;9.254;2022-11-20T16:07:56;-1.10;99.90
10905;DHT22;5505;51.450;9.254;2022-11-20T16:10:53;-1.70;99.90
10905;DHT22;5505;51.450;9.254;2022-11-20T16:13:48;-1.30;99.90
10905;DHT22;5505;51.450;9.254;2022-11-20T16:16:54;-1.00;99.90
10905;DHT22;5505;51.450;9.254;2022-11-20T16:19:41;2.00;99.90
10905;DHT22;5505;51.450;9.254;2022-11-20T16:22:46;-1.60;99.90
10905;DHT22;5505;51.450;9.254;2022-11-20T16:25:42;-1.00;99.90
10905;DHT22;5505;51.450;9.254;2022-11-20T16:28:46;-1.20;99.90
10905;DHT22;5505;51.450;9.254;2022-11-20T16:31:44;-1.00;99.90
10905;DHT22;5505;51.450;9.254;2022-11-20T16:34:37;-2.80;99.90
10905;DHT22;5505;51.450;9.254;2022-11-20T16:37:39;-2.60;99.90
10905;DHT22;5505;51.450;9.254;2022-11-20T16:40:50;0.40;99.90
10905;DHT22;5505;51.450;9.254;2022-11-20T16:43:36;1.30;99.90
10905;DHT22;5505;51.450;9.254;2022-11-20T16:46:28;-1.30;99.90
10905;DHT22;5505;51.450;9.254;2022-11-20T16:49:18;-1.30;99.90
10905;DHT22;5505;51.450;9.254;2022-11-20T16:52:05;-1.20;99.90
10905;DHT22;5505;51.450;9.254;2022-11-20T16:54:52;-1.20;99.90
10905;DHT22;5505;51.450;9.254;2022-11-20T16:57:40;-1.10;99.90
10905;DHT22;5505;51.450;9.254;2022-11-20T17:00:27;-1.10;99.90
10905;DHT22;5505;51.450;9.254;2022-11-20T17:03:14;-1.10;99.90
10905;DHT22;5505;51.450;9.254;2022-11-20T17:06:10;-1.10;99.90
10905;DHT22;5505;51.450;9.254;2022-11-20T17:08:57;-1.10;99.90
10905;DHT22;5505;51.450;9.254;2022-11-20T17:11:44;-1.10;99.90
10905;DHT22;5505;51.450;9.254;2022-11-20T17:14:32;-1.10;99.90
10905;DHT22;5505;51.450;9.254;2022-11-20T17:17:19;-1.10;99.90
10905;DHT22;5505;51.450;9.254;2022-11-20T17:20:07;-1.10;99.90
10905;DHT22;5505;51.450;9.254;2022-11-20T17:22:54;-1.10;99.90
10905;DHT22;5505;51.450;9.254;2022-11-20T17:25:41;-1.10;99.90
10905;DHT22;5505;51.450;9.254;2022-11-20T17:28:28;1.20;99.90
10905;DHT22;5505;51.450;9.254;2022-11-20T17:31:17;-1.00;99.90
10905;DHT22;5505;51.450;9.254;2022-11-20T17:34:04;-1.10;99.90
10905;DHT22;5505;51.450;9.254;2022-11-20T17:36:51;-1.10;99.90
10905;DHT22;5505;51.450;9.254;2022-11-20T17:39:39;-1.10;99.90
10905;DHT22;5505;51.450;9.254;2022-11-20T17:42:26;0.20;99.90
10905;DHT22;5505;51.450;9.254;2022-11-20T17:45:14;-0.90;99.90
10905;DHT22;5505;51.450;9.254;2022-11-20T17:48:02;-0.90;99.90
10905;DHT22;5505;51.450;9.254;2022-11-20T17:50:49;-0.90;99.90
10905;DHT22;5505;51.450;9.254;2022-11-20T17:53:37;-0.90;99.90
10905;DHT22;5505;51.450;9.254;2022-11-20T17:56:25;-0.80;99.90
10905;DHT22;5505;51.450;9.254;2022-11-20T17:59:40;-0.90;99.90
10905;DHT22;5505;51.450;9.254;2022-11-20T18:02:27;-0.90;99.90
10905;DHT22;5505;51.450;9.254;2022-11-20T18:05:16;-0.80;99.90
10905;DHT22;5505;51.450;9.254;2022-11-20T18:08:03;-0.80;99.90
10905;DHT22;5505;51.450;9.254;2022-11-20T18:10:49;-0.80;99.90
10905;DHT22;5505;51.450;9.254;2022-11-20T18:13:37;-0.80;99.90
10905;DHT22;5505;51.450;9.254;2022-11-20T18:16:43;-0.80;99.90
10905;DHT22;5505;51.450;9.254;2022-11-20T18:19:32;-0.80;99.90
10905;DHT22;5505;51.450;9.254;2022-11-20T18:22:20;-0.80;99.90